Rolls, Texas
Current Conditions -  °F | °C
As of 7:58 PM on Wednesday 22 Oct 2014 (Local Time) from KDYS Reporting Station
Broken Clouds Broken Clouds  
Wind Chill: 67°   Ceiling: 6500
Heat Index: 67°   Visibility: 10mi
Dew Point: 58°   Wind: 1mph
Humidity: 71%   Direction: 70°ENE
Pressure: 30.11"   Gusts: NA
Location:  33.1968°N, 99.9025°W
Report Text: KDYS 230058Z AUTO 07001KT 10SM BKN065 20/14 A3011 RMK AO2 SLP168 T01970144
Loading
Personal Weather Stations






























Interactive Weather Map
Tropical Storm Tracking
New forecast layout! Learn more

10-Day Weather Forecast

Advertisements
Track Severe Weather on mobile